Time;durP1;ratioP1;P1;durP2;ratioP2;P2;SDS_P1;SDS_P2;PMS_P1;PMS_P2;Temp;Humidity;BMP_temperature;BMP_pressure;BME280_temperature;BME280_humidity;BME280_pressure;Samples;Min_cycle;Max_cycle;Signal;HPM_P1;HPM_P2
2021/10/27 00:00:57;;;;;;;10.43;4.95;;;;;;;;;;5025534;28;20049;-63
2021/10/27 00:03:26;;;;;;;6.82;3.78;;;;;;;;;;5030237;28;20433;-65
2021/10/27 00:05:54;;;;;;;6.72;3.90;;;;;;;;;;5028806;28;20124;-64
2021/10/27 00:08:23;;;;;;;6.65;3.60;;;;;;;;;;5031056;28;20105;-67
2021/10/27 00:10:51;;;;;;;9.10;3.80;;;;;;;;;;5029558;28;20093;-64
2021/10/27 00:13:20;;;;;;;8.25;3.92;;;;;;;;;;5030711;28;20041;-64
2021/10/27 00:15:49;;;;;;;9.02;4.28;;;;;;;;;;5029205;28;20045;-63
2021/10/27 00:18:18;;;;;;;8.60;4.15;;;;;;;;;;5029052;28;20553;-66
2021/10/27 00:20:46;;;;;;;9.02;4.45;;;;;;;;;;5029447;28;20060;-64
2021/10/27 00:23:14;;;;;;;9.43;4.40;;;;;;;;;;5029736;28;20037;-64
2021/10/27 00:25:42;;;;;;;7.07;3.92;;;;;;;;;;5030413;28;20540;-66
2021/10/27 00:28:11;;;;;;;11.18;4.53;;;;;;;;;;5030560;28;20079;-63
2021/10/27 00:30:39;;;;;;;7.60;3.50;;;;;;;;;;5029912;28;20128;-63
2021/10/27 00:33:09;;;;;;;7.90;3.97;;;;;;;;;;5028933;28;20564;-64
2021/10/27 00:35:37;;;;;;;7.47;4.18;;;;;;;;;;5029504;28;20157;-64
2021/10/27 00:38:05;;;;;;;9.98;4.18;;;;;;;;;;5030282;28;20105;-64
2021/10/27 00:40:34;;;;;;;7.55;4.07;;;;;;;;;;5029833;28;20543;-64
2021/10/27 00:43:02;;;;;;;6.03;3.83;;;;;;;;;;5029606;28;20156;-63
2021/10/27 00:45:30;;;;;;;8.05;4.20;;;;;;;;;;5030089;28;20049;-64
2021/10/27 00:47:58;;;;;;;6.78;4.20;;;;;;;;;;5028711;28;20167;-63
2021/10/27 00:50:28;;;;;;;7.93;4.30;;;;;;;;;;5029799;28;20140;-64
2021/10/27 00:52:56;;;;;;;6.25;3.65;;;;;;;;;;5028834;28;20058;-67
2021/10/27 00:55:25;;;;;;;10.07;4.50;;;;;;;;;;5027402;28;20132;-64
2021/10/27 00:57:55;;;;;;;7.65;4.15;;;;;;;;;;5028870;28;20371;-66
2021/10/27 01:00:23;;;;;;;7.28;3.97;;;;;;;;;;5029664;28;20091;-63
2021/10/27 01:02:52;;;;;;;6.28;3.95;;;;;;;;;;5028864;28;20049;-65
2021/10/27 01:05:20;;;;;;;6.47;3.65;;;;;;;;;;5029712;28;20083;-64
2021/10/27 01:07:50;;;;;;;8.35;3.75;;;;;;;;;;5028826;28;20128;-63
2021/10/27 01:10:18;;;;;;;7.57;4.40;;;;;;;;;;5028451;28;20489;-63
2021/10/27 01:12:46;;;;;;;9.70;4.43;;;;;;;;;;5029086;28;20042;-63
2021/10/27 01:15:16;;;;;;;6.82;3.80;;;;;;;;;;5029253;28;20131;-64
2021/10/27 01:17:44;;;;;;;8.85;4.18;;;;;;;;;;5028356;28;20129;-69
2021/10/27 01:20:13;;;;;;;8.48;4.45;;;;;;;;;;5029909;28;20556;-66
2021/10/27 01:22:42;;;;;;;8.48;3.88;;;;;;;;;;5029186;28;20132;-67
2021/10/27 01:25:12;;;;;;;8.63;4.28;;;;;;;;;;5029305;28;20042;-64
2021/10/27 01:28:02;;;;;;;11.17;3.22;;;;;;;;;;4228924;28;10002067;-63
2021/10/27 01:30:30;;;;;;;7.45;3.65;;;;;;;;;;2076085;28;10002529;-66
2021/10/27 01:32:59;;;;;;;6.93;3.90;;;;;;;;;;5028074;28;20050;-64
2021/10/27 01:35:28;;;;;;;8.57;4.32;;;;;;;;;;5033560;28;20132;-66
2021/10/27 01:37:57;;;;;;;8.55;4.20;;;;;;;;;;5032770;28;20049;-64
2021/10/27 01:40:25;;;;;;;8.15;4.00;;;;;;;;;;5033678;28;20140;-66
2021/10/27 01:42:55;;;;;;;9.00;3.78;;;;;;;;;;5031966;28;20465;-63
2021/10/27 01:45:28;;;;;;;5.82;3.55;;;;;;;;;;5033577;28;20079;-64
2021/10/27 01:47:56;;;;;;;9.55;4.18;;;;;;;;;;5030381;28;20049;-65
2021/10/27 01:50:25;;;;;;;8.10;3.55;;;;;;;;;;5030897;28;20132;-64
2021/10/27 01:52:55;;;;;;;8.60;4.20;;;;;;;;;;5032735;28;20053;-64
2021/10/27 01:55:23;;;;;;;9.00;3.70;;;;;;;;;;5032464;28;20144;-63
2021/10/27 01:57:51;;;;;;;6.85;3.50;;;;;;;;;;5031769;28;20049;-63
2021/10/27 02:00:19;;;;;;;6.05;3.53;;;;;;;;;;5033292;28;20400;-66
2021/10/27 02:02:48;;;;;;;7.53;4.00;;;;;;;;;;5030716;28;20049;-65
2021/10/27 02:05:16;;;;;;;6.85;3.88;;;;;;;;;;5032080;28;20497;-64
2021/10/27 02:07:45;;;;;;;10.00;4.25;;;;;;;;;;5032020;28;20073;-64
2021/10/27 02:10:15;;;;;;;11.38;4.40;;;;;;;;;;5032841;28;20400;-66
2021/10/27 02:12:44;;;;;;;9.07;3.65;;;;;;;;;;5031540;28;20124;-65
2021/10/27 02:15:13;;;;;;;7.60;4.20;;;;;;;;;;5033084;28;20134;-66
2021/10/27 02:17:41;;;;;;;9.52;3.70;;;;;;;;;;5030206;28;20050;-63
2021/10/27 02:20:10;;;;;;;7.57;3.30;;;;;;;;;;5032428;28;20135;-64
2021/10/27 02:22:40;;;;;;;5.85;3.83;;;;;;;;;;5029869;28;20516;-65
2021/10/27 02:25:08;;;;;;;7.20;3.58;;;;;;;;;;5023770;28;20136;-65
2021/10/27 02:27:38;;;;;;;6.18;3.70;;;;;;;;;;5032520;28;20045;-64
2021/10/27 02:30:07;;;;;;;5.82;3.13;;;;;;;;;;5032404;28;20160;-64
2021/10/27 02:32:36;;;;;;;7.10;3.70;;;;;;;;;;5031254;28;20172;-64
2021/10/27 02:35:04;;;;;;;6.75;3.38;;;;;;;;;;5032822;28;20136;-64
2021/10/27 02:37:33;;;;;;;7.25;3.47;;;;;;;;;;5031473;28;20041;-64
2021/10/27 02:40:01;;;;;;;6.47;3.35;;;;;;;;;;5032502;28;20148;-64
2021/10/27 02:42:29;;;;;;;9.00;3.08;;;;;;;;;;5031412;28;20140;-63
2021/10/27 02:44:59;;;;;;;7.07;3.20;;;;;;;;;;5031204;28;20088;-63
2021/10/27 02:47:27;;;;;;;8.68;3.88;;;;;;;;;;5031164;28;20089;-64
2021/10/27 02:49:55;;;;;;;6.47;3.40;;;;;;;;;;5032181;28;20136;-64
2021/10/27 02:52:23;;;;;;;7.13;3.67;;;;;;;;;;5031309;28;20437;-64
2021/10/27 02:54:52;;;;;;;6.38;3.42;;;;;;;;;;5031217;28;20068;-64
2021/10/27 02:57:20;;;;;;;6.30;3.55;;;;;;;;;;5030698;28;20595;-63
2021/10/27 02:59:48;;;;;;;6.07;3.63;;;;;;;;;;5031518;28;20055;-63
2021/10/27 03:02:18;;;;;;;7.55;3.65;;;;;;;;;;5034617;28;20161;-64
2021/10/27 03:04:46;;;;;;;8.20;4.10;;;;;;;;;;5031043;28;20053;-64
2021/10/27 03:07:14;;;;;;;4.85;3.00;;;;;;;;;;5031597;28;20445;-63
2021/10/27 03:09:43;;;;;;;7.75;3.45;;;;;;;;;;5031914;28;20129;-66
2021/10/27 03:12:11;;;;;;;6.03;3.05;;;;;;;;;;5031441;28;20059;-64
2021/10/27 03:14:40;;;;;;;7.82;2.97;;;;;;;;;;5030676;28;20079;-63
2021/10/27 03:17:10;;;;;;;7.55;3.35;;;;;;;;;;5031603;28;20136;-64
2021/10/27 03:19:39;;;;;;;4.95;3.15;;;;;;;;;;5031269;28;20048;-67
2021/10/27 03:22:07;;;;;;;5.82;3.10;;;;;;;;;;5019593;28;20051;-64
2021/10/27 03:24:36;;;;;;;5.80;3.15;;;;;;;;;;5027740;28;20520;-65
2021/10/27 03:27:04;;;;;;;6.47;2.85;;;;;;;;;;5035146;28;20143;-65
2021/10/27 03:29:32;;;;;;;5.60;3.20;;;;;;;;;;5042943;28;20037;-67
2021/10/27 03:32:01;;;;;;;5.85;3.97;;;;;;;;;;5030814;28;20057;-64
2021/10/27 03:34:30;;;;;;;6.25;3.25;;;;;;;;;;5029736;28;20041;-67
2021/10/27 03:36:59;;;;;;;8.65;3.15;;;;;;;;;;5031307;28;20584;-66
2021/10/27 03:39:27;;;;;;;6.35;3.22;;;;;;;;;;5030860;28;20140;-66
2021/10/27 03:41:56;;;;;;;5.95;2.90;;;;;;;;;;5031606;28;20045;-63
2021/10/27 03:44:24;;;;;;;5.07;3.05;;;;;;;;;;5029960;28;20556;-64
2021/10/27 03:46:52;;;;;;;4.53;2.78;;;;;;;;;;5030835;28;20473;-65
2021/10/27 03:49:21;;;;;;;5.97;3.45;;;;;;;;;;5028035;28;20049;-64
2021/10/27 03:51:50;;;;;;;6.22;3.05;;;;;;;;;;5031500;28;20085;-63
2021/10/27 03:54:19;;;;;;;7.85;3.15;;;;;;;;;;5029533;28;20124;-64
2021/10/27 03:56:48;;;;;;;5.43;3.03;;;;;;;;;;5029399;28;20081;-64
2021/10/27 03:59:16;;;;;;;5.90;2.78;;;;;;;;;;5027938;28;20076;-67
2021/10/27 04:01:44;;;;;;;4.50;3.00;;;;;;;;;;5019808;28;20052;-64
2021/10/27 04:04:13;;;;;;;5.10;3.25;;;;;;;;;;5025598;28;20124;-66
2021/10/27 04:06:41;;;;;;;5.47;2.60;;;;;;;;;;5029803;28;20128;-64
2021/10/27 04:09:10;;;;;;;6.18;3.30;;;;;;;;;;5030288;28;20046;-63
2021/10/27 04:11:39;;;;;;;7.78;3.10;;;;;;;;;;5030052;28;20132;-67
2021/10/27 04:14:08;;;;;;;4.90;3.15;;;;;;;;;;5026464;28;20460;-66
2021/10/27 04:16:36;;;;;;;5.00;2.65;;;;;;;;;;5030276;28;20133;-65
2021/10/27 04:19:04;;;;;;;7.20;3.22;;;;;;;;;;5030499;28;20409;-64
2021/10/27 04:21:32;;;;;;;6.72;3.00;;;;;;;;;;5029330;28;20119;-63
2021/10/27 04:24:01;;;;;;;5.93;2.78;;;;;;;;;;5028731;28;20141;-67
2021/10/27 04:26:29;;;;;;;6.68;2.42;;;;;;;;;;5030538;28;20152;-67
2021/10/27 04:28:59;;;;;;;3.92;2.60;;;;;;;;;;5037541;28;20108;-64
2021/10/27 04:31:28;;;;;;;9.57;3.40;;;;;;;;;;5028673;28;20128;-65
2021/10/27 04:33:56;;;;;;;4.57;2.60;;;;;;;;;;5026432;28;20054;-68
2021/10/27 04:36:25;;;;;;;4.25;2.30;;;;;;;;;;5026814;28;20057;-66
2021/10/27 04:38:53;;;;;;;4.00;2.42;;;;;;;;;;5030268;28;20080;-64
2021/10/27 04:41:21;;;;;;;5.80;3.20;;;;;;;;;;5030371;28;20053;-64
2021/10/27 04:43:49;;;;;;;4.18;2.72;;;;;;;;;;5027740;28;20083;-67
2021/10/27 04:46:19;;;;;;;6.30;2.63;;;;;;;;;;5030658;28;20045;-64
2021/10/27 04:48:47;;;;;;;7.78;3.03;;;;;;;;;;5028964;28;20083;-64
2021/10/27 04:51:16;;;;;;;5.47;2.85;;;;;;;;;;5026519;28;20167;-65
2021/10/27 04:53:44;;;;;;;6.50;2.85;;;;;;;;;;5027415;28;20121;-64
2021/10/27 04:56:12;;;;;;;6.65;2.67;;;;;;;;;;5028215;28;20489;-69
2021/10/27 04:58:40;;;;;;;6.55;2.88;;;;;;;;;;5030217;28;20160;-64
2021/10/27 05:01:09;;;;;;;6.03;3.38;;;;;;;;;;5028462;28;20481;-67
2021/10/27 05:03:43;;;;;;;3.33;2.25;;;;;;;;;;5028565;28;20053;-64
2021/10/27 05:06:12;;;;;;;7.15;3.05;;;;;;;;;;5023805;28;20077;-71
2021/10/27 05:08:42;;;;;;;6.03;2.65;;;;;;;;;;5020004;28;20467;-64
2021/10/27 05:11:11;;;;;;;3.72;2.45;;;;;;;;;;5028729;28;20054;-64
2021/10/27 05:13:39;;;;;;;6.20;2.80;;;;;;;;;;5027531;28;20051;-67
2021/10/27 05:16:08;;;;;;;4.53;2.67;;;;;;;;;;5025410;28;20049;-67
2021/10/27 05:18:36;;;;;;;4.60;2.40;;;;;;;;;;5017958;28;20048;-66
2021/10/27 05:21:07;;;;;;;4.53;2.58;;;;;;;;;;5024005;28;20483;-66
2021/10/27 05:23:36;;;;;;;4.22;2.65;;;;;;;;;;5021579;28;20153;-67
2021/10/27 05:26:04;;;;;;;4.60;2.35;;;;;;;;;;5024316;28;20119;-66
2021/10/27 05:28:33;;;;;;;7.30;2.75;;;;;;;;;;5025324;28;20579;-66
2021/10/27 05:31:01;;;;;;;6.85;3.28;;;;;;;;;;5028650;28;20113;-66
2021/10/27 05:33:29;;;;;;;4.40;2.60;;;;;;;;;;5020940;28;20069;-65
2021/10/27 05:35:58;;;;;;;7.07;2.63;;;;;;;;;;5026630;28;20054;-67
2021/10/27 05:38:27;;;;;;;4.68;2.80;;;;;;;;;;5024722;28;20052;-69
2021/10/27 05:40:55;;;;;;;6.93;2.83;;;;;;;;;;5025874;28;20122;-65
2021/10/27 05:43:25;;;;;;;6.18;2.95;;;;;;;;;;5023460;28;20148;-65
2021/10/27 05:45:56;;;;;;;5.75;2.60;;;;;;;;;;5025183;28;20041;-65
2021/10/27 05:48:28;;;;;;;5.00;2.78;;;;;;;;;;5021949;28;20049;-69
2021/10/27 05:51:12;;;;;;;8.13;2.60;;;;;;;;;;5019453;28;20104;-64
2021/10/27 05:56:29;;;;;;;4.60;2.42;;;;;;;;;;5023481;28;20136;-66
2021/10/27 05:58:59;;;;;;;5.70;3.17;;;;;;;;;;5024786;28;20140;-64
2021/10/27 06:01:27;;;;;;;7.82;2.85;;;;;;;;;;5021261;28;20049;-65
2021/10/27 06:03:55;;;;;;;3.63;2.38;;;;;;;;;;5022880;28;20064;-65
2021/10/27 06:06:24;;;;;;;6.28;2.92;;;;;;;;;;5026688;28;20041;-64
2021/10/27 06:08:55;;;;;;;7.72;3.28;;;;;;;;;;5020569;28;20497;-66
2021/10/27 06:11:24;;;;;;;5.93;3.10;;;;;;;;;;5012329;28;20049;-65
2021/10/27 06:13:52;;;;;;;8.50;2.47;;;;;;;;;;5024180;28;20163;-66
2021/10/27 06:16:21;;;;;;;7.57;2.28;;;;;;;;;;5025817;28;20128;-66
2021/10/27 06:18:49;;;;;;;7.30;3.30;;;;;;;;;;5027226;28;20145;-65
2021/10/27 06:21:18;;;;;;;6.15;3.00;;;;;;;;;;5028454;28;20072;-67
2021/10/27 06:23:46;;;;;;;7.05;3.05;;;;;;;;;;5029892;28;20124;-65
2021/10/27 06:26:16;;;;;;;5.35;2.70;;;;;;;;;;5031035;28;20076;-65
2021/10/27 06:28:54;;;;;;;5.28;2.25;;;;;;;;;;5012421;28;20553;-67
2021/10/27 06:31:27;;;;;;;3.88;2.28;;;;;;;;;;5020402;28;20053;-65
2021/10/27 06:34:00;;;;;;;6.03;2.78;;;;;;;;;;5029501;28;20060;-65
2021/10/27 06:36:33;;;;;;;5.38;2.50;;;;;;;;;;5029208;28;20136;-65
2021/10/27 06:39:23;;;;;;;6.97;2.83;;;;;;;;;;5031174;28;20481;-64
2021/10/27 06:47:27;;;;;;;5.40;2.22;;;;;;;;;;5031955;28;20069;-65
2021/10/27 06:49:55;;;;;;;6.13;2.83;;;;;;;;;;5033358;28;20103;-68
2021/10/27 06:52:24;;;;;;;5.85;2.90;;;;;;;;;;5024843;28;20088;-70
2021/10/27 06:54:54;;;;;;;8.18;2.83;;;;;;;;;;5026614;28;20072;-65
2021/10/27 06:57:26;;;;;;;4.32;2.78;;;;;;;;;;5030550;28;20050;-67
2021/10/27 06:59:58;;;;;;;6.00;2.83;;;;;;;;;;5024448;28;20093;-65
2021/10/27 07:02:45;;;;;;;7.07;2.88;;;;;;;;;;5028552;28;20083;-67
2021/10/27 07:05:28;;;;;;;3.85;2.47;;;;;;;;;;5029450;28;20136;-67
2021/10/27 07:16:17;;;;;;;4.10;2.22;;;;;;;;;;5029821;28;20140;-66
2021/10/27 07:18:46;;;;;;;4.43;2.78;;;;;;;;;;5030420;28;20103;-66
2021/10/27 07:21:15;;;;;;;4.78;2.60;;;;;;;;;;5028259;28;20053;-71
2021/10/27 07:23:43;;;;;;;4.45;2.67;;;;;;;;;;5029178;28;20421;-67
2021/10/27 07:26:12;;;;;;;4.18;2.55;;;;;;;;;;5030589;28;20050;-64
2021/10/27 07:28:43;;;;;;;4.43;3.25;;;;;;;;;;5030528;28;20077;-66
2021/10/27 07:31:15;;;;;;;3.97;2.63;;;;;;;;;;5029257;28;20188;-64
2021/10/27 07:33:48;;;;;;;8.15;3.35;;;;;;;;;;5029520;28;20096;-67
2021/10/27 07:36:29;;;;;;;5.15;2.90;;;;;;;;;;5026672;28;20045;-65
2021/10/27 07:41:44;;;;;;;7.28;2.70;;;;;;;;;;5028821;28;20052;-67
2021/10/27 07:44:16;;;;;;;9.93;3.17;;;;;;;;;;5029379;28;20053;-64
2021/10/27 07:46:45;;;;;;;5.80;2.67;;;;;;;;;;5029497;28;20132;-69
2021/10/27 07:49:14;;;;;;;6.10;2.63;;;;;;;;;;5027277;28;20054;-68
2021/10/27 07:51:43;;;;;;;6.00;2.90;;;;;;;;;;5026097;28;20037;-67
2021/10/27 07:54:13;;;;;;;5.45;3.13;;;;;;;;;;5029771;28;20037;-67
2021/10/27 07:56:43;;;;;;;3.58;2.53;;;;;;;;;;5029430;28;20492;-65
2021/10/27 07:59:12;;;;;;;4.53;2.83;;;;;;;;;;5028209;28;20854;-64
2021/10/27 08:01:41;;;;;;;6.75;2.72;;;;;;;;;;5026086;28;20100;-65
2021/10/27 08:04:10;;;;;;;8.30;3.10;;;;;;;;;;5029431;28;20127;-65
2021/10/27 08:06:38;;;;;;;7.97;3.58;;;;;;;;;;5028196;28;20516;-66
2021/10/27 08:09:07;;;;;;;9.25;3.50;;;;;;;;;;5029784;28;20053;-65
2021/10/27 08:11:35;;;;;;;7.68;3.40;;;;;;;;;;5027678;28;20053;-67
2021/10/27 08:14:04;;;;;;;7.38;3.45;;;;;;;;;;5026219;28;20041;-67
2021/10/27 08:16:33;;;;;;;6.57;3.40;;;;;;;;;;5024194;28;20045;-64
2021/10/27 08:19:03;;;;;;;7.15;3.53;;;;;;;;;;5028616;28;20089;-65
2021/10/27 08:21:32;;;;;;;7.13;3.33;;;;;;;;;;5028731;28;20278;-66
2021/10/27 08:24:01;;;;;;;8.98;4.18;;;;;;;;;;5038086;28;20611;-64
2021/10/27 08:26:30;;;;;;;5.65;3.05;;;;;;;;;;5032272;28;20076;-68
2021/10/27 08:29:00;;;;;;;9.77;3.20;;;;;;;;;;5026157;28;20081;-65
2021/10/27 08:31:38;;;;;;;7.95;3.60;;;;;;;;;;5029055;28;20107;-64
2021/10/27 08:34:15;;;;;;;6.60;3.28;;;;;;;;;;5026094;28;20575;-65
2021/10/27 08:36:44;;;;;;;8.95;3.22;;;;;;;;;;5027752;28;20056;-66
2021/10/27 08:39:14;;;;;;;7.63;3.08;;;;;;;;;;5028255;28;20053;-67
2021/10/27 08:41:47;;;;;;;8.27;4.18;;;;;;;;;;5025242;28;20516;-65
2021/10/27 08:44:15;;;;;;;8.05;3.38;;;;;;;;;;5027062;28;20107;-68
2021/10/27 08:46:44;;;;;;;9.85;3.60;;;;;;;;;;5008896;28;20504;-65
2021/10/27 08:49:17;;;;;;;9.18;3.95;;;;;;;;;;5021291;28;20056;-65
2021/10/27 08:51:46;;;;;;;13.25;4.40;;;;;;;;;;5026706;28;20493;-64
2021/10/27 08:54:15;;;;;;;10.10;3.85;;;;;;;;;;5025495;28;20180;-66
2021/10/27 08:56:44;;;;;;;8.30;4.20;;;;;;;;;;5027185;28;20156;-66
2021/10/27 08:59:18;;;;;;;11.30;4.32;;;;;;;;;;5028975;28;20119;-64
2021/10/27 09:04:54;;;;;;;9.25;4.88;;;;;;;;;;5016476;28;20403;-64
2021/10/27 09:07:29;;;;;;;10.43;5.28;;;;;;;;;;5022884;28;20552;-66
2021/10/27 09:35:31;;;;;;;11.73;5.55;;;;;;;;;;5026992;28;20053;-64
2021/10/27 09:38:23;;;;;;;13.52;6.55;;;;;;;;;;5026664;28;20053;-64
2021/10/27 09:41:22;;;;;;;11.10;5.22;;;;;;;;;;5024250;28;20052;-63
2021/10/27 09:44:15;;;;;;;11.10;5.38;;;;;;;;;;5020497;28;20054;-63
2021/10/27 09:55:52;;;;;;;9.52;4.43;;;;;;;;;;5031280;28;20099;-64
2021/10/27 10:04:10;;;;;;;12.05;4.63;;;;;;;;;;5025928;28;20481;-66
2021/10/27 10:06:49;;;;;;;12.35;5.40;;;;;;;;;;5030746;28;20073;-62
2021/10/27 10:09:18;;;;;;;8.88;5.50;;;;;;;;;;5030155;28;20050;-63
2021/10/27 10:11:49;;;;;;;10.82;4.90;;;;;;;;;;5030676;28;20058;-63
2021/10/27 10:14:19;;;;;;;9.20;4.80;;;;;;;;;;5030799;28;20047;-66
2021/10/27 10:16:48;;;;;;;13.27;5.65;;;;;;;;;;5029540;28;20115;-63
2021/10/27 10:19:18;;;;;;;9.30;4.57;;;;;;;;;;5029760;28;20107;-63
2021/10/27 10:21:47;;;;;;;12.48;4.57;;;;;;;;;;5031605;28;20111;-65
2021/10/27 10:24:37;;;;;;;13.75;5.07;;;;;;;;;;5029596;28;20128;-64
2021/10/27 10:27:09;;;;;;;7.32;3.80;;;;;;;;;;5026438;28;20049;-64
2021/10/27 10:29:49;;;;;;;6.97;3.85;;;;;;;;;;5027511;28;20072;-65
2021/10/27 10:32:31;;;;;;;11.27;4.82;;;;;;;;;;5031003;28;20125;-68
2021/10/27 10:35:03;;;;;;;7.63;4.28;;;;;;;;;;5011915;28;20440;-62
2021/10/27 10:37:34;;;;;;;9.45;4.28;;;;;;;;;;5030343;28;20037;-64
2021/10/27 10:40:28;;;;;;;7.70;4.20;;;;;;;;;;5027086;28;20050;-63
2021/10/27 10:43:05;;;;;;;5.10;3.58;;;;;;;;;;5030524;28;20137;-66
2021/10/27 10:45:44;;;;;;;8.95;4.22;;;;;;;;;;5014518;28;20448;-63
2021/10/27 11:11:52;;;;;;;8.95;5.05;;;;;;;;;;5028512;28;20049;-63
2021/10/27 11:23:52;;;;;;;7.40;4.18;;;;;;;;;;5018786;28;20466;-67
2021/10/27 11:40:24;;;;;;;7.50;4.43;;;;;;;;;;5027206;28;20551;-66
2021/10/27 11:42:55;;;;;;;9.32;5.03;;;;;;;;;;5028779;28;20386;-63
2021/10/27 11:45:51;;;;;;;7.80;4.15;;;;;;;;;;5030454;28;20129;-63
2021/10/27 11:48:29;;;;;;;7.28;4.25;;;;;;;;;;5029169;28;20511;-63
2021/10/27 11:50:58;;;;;;;9.90;4.88;;;;;;;;;;5018128;28;20440;-63
2021/10/27 11:53:28;;;;;;;11.43;5.03;;;;;;;;;;5029377;28;20049;-67
2021/10/27 11:55:58;;;;;;;9.32;4.57;;;;;;;;;;5029352;28;20084;-64
2021/10/27 11:58:36;;;;;;;8.73;4.50;;;;;;;;;;5029319;28;20049;-64
2021/10/27 12:01:06;;;;;;;9.77;4.65;;;;;;;;;;5026119;28;20429;-63
2021/10/27 12:03:42;;;;;;;5.55;3.58;;;;;;;;;;5033838;28;20128;-63
2021/10/27 12:06:27;;;;;;;8.95;4.57;;;;;;;;;;5024498;28;20046;-66
2021/10/27 12:09:21;;;;;;;9.25;5.18;;;;;;;;;;5029156;28;20060;-64
2021/10/27 12:14:58;;;;;;;10.43;4.63;;;;;;;;;;5030210;28;20041;-64
2021/10/27 12:17:33;;;;;;;9.00;4.47;;;;;;;;;;5028224;28;20056;-65
2021/10/27 12:20:03;;;;;;;10.25;4.68;;;;;;;;;;5021357;28;20092;-62
2021/10/27 12:22:32;;;;;;;9.35;4.50;;;;;;;;;;5028056;28;20136;-64
2021/10/27 12:25:04;;;;;;;7.38;4.43;;;;;;;;;;5028916;28;20448;-67
2021/10/27 12:27:35;;;;;;;7.38;4.45;;;;;;;;;;5028673;28;20084;-65
2021/10/27 12:30:05;;;;;;;6.90;4.53;;;;;;;;;;5028035;28;20515;-64
2021/10/27 12:32:34;;;;;;;7.20;4.20;;;;;;;;;;5028184;28;20072;-64
2021/10/27 12:35:07;;;;;;;10.05;5.10;;;;;;;;;;5023746;28;20081;-66
2021/10/27 12:37:38;;;;;;;8.25;4.45;;;;;;;;;;5027424;28;20068;-63
2021/10/27 12:40:21;;;;;;;10.20;5.28;;;;;;;;;;5027841;28;20456;-66
2021/10/27 12:42:59;;;;;;;7.43;4.60;;;;;;;;;;5022465;28;20448;-63
2021/10/27 12:45:36;;;;;;;9.65;5.28;;;;;;;;;;5023221;28;20519;-65
2021/10/27 12:48:05;;;;;;;7.88;4.07;;;;;;;;;;5027118;28;20405;-67
2021/10/27 12:50:35;;;;;;;11.52;4.10;;;;;;;;;;5022686;28;20041;-66
2021/10/27 12:53:04;;;;;;;9.43;4.22;;;;;;;;;;5025751;28;20066;-63
2021/10/27 12:55:34;;;;;;;7.50;4.65;;;;;;;;;;5031004;28;20048;-65
2021/10/27 12:58:05;;;;;;;8.48;4.15;;;;;;;;;;5026524;28;20041;-63
2021/10/27 13:00:56;;;;;;;6.88;4.65;;;;;;;;;;5026370;28;20598;-65
2021/10/27 13:06:19;;;;;;;9.32;4.20;;;;;;;;;;5020925;28;20052;-63
2021/10/27 13:11:42;;;;;;;5.75;3.38;;;;;;;;;;5024681;28;20128;-68
2021/10/27 13:14:20;;;;;;;8.93;3.40;;;;;;;;;;5023494;28;20538;-64
2021/10/27 13:22:34;;;;;;;10.23;4.88;;;;;;;;;;5024002;28;20540;-63
2021/10/27 13:30:53;;;;;;;8.10;4.35;;;;;;;;;;4946564;28;20419;-64
2021/10/27 13:33:23;;;;;;;9.15;4.22;;;;;;;;;;4998250;28;20068;-63
2021/10/27 13:35:53;;;;;;;8.15;4.75;;;;;;;;;;5028448;28;20123;-68
2021/10/27 13:38:31;;;;;;;6.75;3.75;;;;;;;;;;5023860;28;20148;-63
2021/10/27 13:40:59;;;;;;;6.80;4.05;;;;;;;;;;5032280;28;20076;-63
2021/10/27 13:43:33;;;;;;;6.53;3.88;;;;;;;;;;5016827;28;20053;-66
2021/10/27 14:08:25;;;;;;;7.57;3.78;;;;;;;;;;5027248;28;20075;-64
2021/10/27 14:11:01;;;;;;;9.43;4.60;;;;;;;;;;5018542;28;20178;-63
2021/10/27 14:13:42;;;;;;;8.88;3.90;;;;;;;;;;5022925;28;20075;-63
2021/10/27 14:16:32;;;;;;;6.85;4.13;;;;;;;;;;5031532;28;20049;-64
2021/10/27 14:19:11;;;;;;;6.07;3.80;;;;;;;;;;5027012;28;20404;-64
2021/10/27 15:20:06;;;;;;;18.88;9.68;;;;;;;;;;5028587;28;20135;-64
2021/10/27 15:22:48;;;;;;;16.48;9.15;;;;;;;;;;5027273;28;20077;-68
2021/10/27 15:25:31;;;;;;;19.80;9.70;;;;;;;;;;5026857;28;20132;-69
2021/10/27 15:28:10;;;;;;;18.00;9.13;;;;;;;;;;5029422;28;20408;-66
2021/10/27 15:30:46;;;;;;;17.95;8.95;;;;;;;;;;5023284;28;20054;-63
2021/10/27 15:33:39;;;;;;;15.93;8.93;;;;;;;;;;5025310;28;20390;-64
2021/10/27 15:36:18;;;;;;;18.58;9.77;;;;;;;;;;5026005;28;20054;-66
2021/10/27 15:41:41;;;;;;;19.48;9.60;;;;;;;;;;5026130;28;20119;-64
2021/10/27 15:44:26;;;;;;;18.73;9.60;;;;;;;;;;5024318;28;20548;-63
2021/10/27 15:52:30;;;;;;;22.15;10.88;;;;;;;;;;5018249;28;20132;-65
2021/10/27 15:54:58;;;;;;;22.92;11.27;;;;;;;;;;5022101;28;20055;-67
2021/10/27 15:57:27;;;;;;;20.88;11.05;;;;;;;;;;5017383;28;20077;-66
2021/10/27 15:59:55;;;;;;;21.85;11.20;;;;;;;;;;5025500;28;20461;-63
2021/10/27 16:02:23;;;;;;;21.15;10.73;;;;;;;;;;5036039;28;20128;-67
2021/10/27 16:04:55;;;;;;;28.30;10.60;;;;;;;;;;5024310;28;20057;-67
2021/10/27 16:07:25;;;;;;;19.90;9.98;;;;;;;;;;5021549;28;20390;-66
2021/10/27 16:09:59;;;;;;;23.50;11.45;;;;;;;;;;5020335;28;20821;-63
2021/10/27 16:12:28;;;;;;;23.67;11.18;;;;;;;;;;5033346;28;20072;-69
2021/10/27 16:14:58;;;;;;;23.48;10.85;;;;;;;;;;5020972;28;20597;-66
2021/10/27 16:17:26;;;;;;;25.05;12.15;;;;;;;;;;5017287;28;20152;-64
2021/10/27 16:19:57;;;;;;;25.42;10.48;;;;;;;;;;5015556;28;20485;-66
2021/10/27 16:22:26;;;;;;;24.17;10.93;;;;;;;;;;5021070;28;20500;-66
2021/10/27 16:24:55;;;;;;;22.27;11.27;;;;;;;;;;5023252;28;20501;-64
2021/10/27 16:27:25;;;;;;;24.45;12.00;;;;;;;;;;5024250;28;20479;-63
2021/10/27 16:29:53;;;;;;;22.83;10.85;;;;;;;;;;5023968;28;20049;-65
2021/10/27 16:32:22;;;;;;;23.88;11.32;;;;;;;;;;5018321;28;20696;-66
2021/10/27 16:34:50;;;;;;;26.85;12.73;;;;;;;;;;5019869;28;20136;-67
2021/10/27 16:37:25;;;;;;;25.33;12.30;;;;;;;;;;5022778;28;20133;-67
2021/10/27 16:39:54;;;;;;;30.75;13.07;;;;;;;;;;5021253;28;20049;-70
2021/10/27 16:42:23;;;;;;;30.08;13.32;;;;;;;;;;5018073;28;20052;-65
2021/10/27 16:44:51;;;;;;;27.70;12.57;;;;;;;;;;5019741;28;20080;-66
2021/10/27 16:47:19;;;;;;;26.15;11.85;;;;;;;;;;5019564;28;20053;-67
2021/10/27 16:49:48;;;;;;;22.52;10.68;;;;;;;;;;5025745;28;20456;-67
2021/10/27 16:52:16;;;;;;;26.60;12.15;;;;;;;;;;5024910;28;20107;-68
2021/10/27 16:54:46;;;;;;;28.63;11.88;;;;;;;;;;5027080;28;20076;-66
2021/10/27 16:57:16;;;;;;;26.77;12.27;;;;;;;;;;5033707;28;20041;-64
2021/10/27 16:59:45;;;;;;;20.38;11.48;;;;;;;;;;5035879;28;20076;-67
2021/10/27 17:02:14;;;;;;;27.98;12.52;;;;;;;;;;5021333;28;20053;-65
2021/10/27 17:04:43;;;;;;;25.42;11.68;;;;;;;;;;5020164;28;20049;-70
2021/10/27 17:07:11;;;;;;;26.58;12.18;;;;;;;;;;5021869;28;20059;-68
2021/10/27 17:09:40;;;;;;;23.35;11.43;;;;;;;;;;5023865;28;20137;-66
2021/10/27 17:12:11;;;;;;;24.42;12.05;;;;;;;;;;5022419;28;20412;-64
2021/10/27 17:14:41;;;;;;;29.98;13.20;;;;;;;;;;5022133;28;20041;-64
2021/10/27 17:17:09;;;;;;;24.48;12.43;;;;;;;;;;5023567;28;20302;-67
2021/10/27 17:19:37;;;;;;;29.25;13.10;;;;;;;;;;5017592;28;20515;-66
2021/10/27 17:22:07;;;;;;;26.98;12.57;;;;;;;;;;5023186;28;20136;-70
2021/10/27 17:24:36;;;;;;;28.70;13.07;;;;;;;;;;5019758;28;20072;-64
2021/10/27 17:27:26;;;;;;;26.30;12.52;;;;;;;;;;5022345;28;20520;-66
2021/10/27 17:29:55;;;;;;;30.00;13.57;;;;;;;;;;5023512;28;20053;-64
2021/10/27 17:32:24;;;;;;;23.25;11.55;;;;;;;;;;5022273;28;20136;-71
2021/10/27 17:34:53;;;;;;;28.30;13.18;;;;;;;;;;5023717;28;20576;-65
2021/10/27 17:37:21;;;;;;;29.50;13.43;;;;;;;;;;5024632;28;20045;-66
2021/10/27 17:39:50;;;;;;;31.55;14.13;;;;;;;;;;5022850;28;20042;-64
2021/10/27 17:42:19;;;;;;;31.38;14.45;;;;;;;;;;5021676;28;20926;-65
2021/10/27 17:44:50;;;;;;;30.92;14.10;;;;;;;;;;5024179;28;20332;-68
2021/10/27 17:47:25;;;;;;;29.92;13.05;;;;;;;;;;5019671;28;20041;-67
2021/10/27 17:50:06;;;;;;;30.50;14.15;;;;;;;;;;5023916;28;20088;-70
2021/10/27 17:52:46;;;;;;;28.77;13.00;;;;;;;;;;5023302;28;20056;-64
2021/10/27 18:00:48;;;;;;;27.65;12.95;;;;;;;;;;5025408;28;20147;-69
2021/10/27 18:03:17;;;;;;;28.92;13.32;;;;;;;;;;5022399;28;20053;-70
2021/10/27 18:05:45;;;;;;;28.23;13.63;;;;;;;;;;5024399;28;20150;-70
2021/10/27 18:08:18;;;;;;;28.33;12.60;;;;;;;;;;5023105;28;20085;-67
2021/10/27 18:11:04;;;;;;;27.40;13.23;;;;;;;;;;5007081;28;20891;-64
2021/10/27 18:13:35;;;;;;;29.38;13.60;;;;;;;;;;5025033;28;20057;-66
2021/10/27 18:16:11;;;;;;;29.08;13.07;;;;;;;;;;5025316;28;20158;-64
2021/10/27 18:18:46;;;;;;;28.40;12.60;;;;;;;;;;5025319;28;20049;-64
2021/10/27 18:21:19;;;;;;;23.52;12.35;;;;;;;;;;5012637;28;20123;-69
2021/10/27 18:24:10;;;;;;;28.75;13.55;;;;;;;;;;5026159;28;20146;-67
2021/10/27 18:37:56;;;;;;;27.50;12.98;;;;;;;;;;5024340;28;20057;-69
2021/10/27 18:40:32;;;;;;;25.90;12.35;;;;;;;;;;5027680;28;20132;-67
2021/10/27 18:43:13;;;;;;;27.40;12.93;;;;;;;;;;5025506;28;20587;-65
2021/10/27 18:45:43;;;;;;;26.35;12.35;;;;;;;;;;5026517;28;20103;-65
2021/10/27 18:48:14;;;;;;;22.95;12.32;;;;;;;;;;5026396;28;20107;-69
2021/10/27 18:50:47;;;;;;;27.35;12.55;;;;;;;;;;5024832;28;20121;-66
2021/10/27 18:53:44;;;;;;;25.30;12.27;;;;;;;;;;5024501;28;20341;-64
2021/10/27 18:56:21;;;;;;;26.35;12.40;;;;;;;;;;5027469;28;20091;-66